createdAt,value
2017-10-27T00:01:09.531Z,0.00
2017-10-27T00:02:10.049Z,0.00
2017-10-27T00:04:04.018Z,0.00
2017-10-27T00:05:04.945Z,0.00
2017-10-27T00:06:58.493Z,0.00
2017-10-27T00:07:58.255Z,0.00
2017-10-27T00:09:52.655Z,0.00
2017-10-27T00:10:52.607Z,0.00
2017-10-27T00:12:46.984Z,0.00
2017-10-27T00:13:46.977Z,0.00
2017-10-27T00:15:41.461Z,0.00
2017-10-27T00:16:41.348Z,0.00
2017-10-27T00:18:35.719Z,0.00
2017-10-27T00:19:35.717Z,0.00
2017-10-27T00:21:31.120Z,0.00
2017-10-27T00:22:30.085Z,0.00
2017-10-27T00:24:24.465Z,0.00
2017-10-27T00:25:24.455Z,0.00
2017-10-27T00:27:18.869Z,0.00
2017-10-27T00:28:18.818Z,0.00
2017-10-27T00:30:13.235Z,0.00
2017-10-27T00:31:13.188Z,0.00
2017-10-27T00:33:07.802Z,0.00
2017-10-27T00:34:07.555Z,0.00
2017-10-27T00:36:02.239Z,0.00
2017-10-27T00:37:01.923Z,0.00
2017-10-27T00:38:56.599Z,0.00
2017-10-27T00:39:56.306Z,0.00
2017-10-27T00:41:50.680Z,0.00
2017-10-27T00:42:50.673Z,0.00
2017-10-27T00:44:45.080Z,0.00
2017-10-27T00:45:45.030Z,0.00
2017-10-27T00:47:39.457Z,0.00
2017-10-27T00:48:39.401Z,0.00
2017-10-27T00:50:33.760Z,0.00
2017-10-27T00:51:33.759Z,0.00
2017-10-27T00:53:28.175Z,0.00
2017-10-27T00:54:28.126Z,0.00
2017-10-27T00:56:22.507Z,0.00
2017-10-27T00:57:22.512Z,0.00
2017-10-27T00:59:16.974Z,0.00
2017-10-27T01:00:16.877Z,0.00
2017-10-27T01:02:11.286Z,0.00
2017-10-27T01:03:11.244Z,0.00
2017-10-27T01:05:05.651Z,0.00
2017-10-27T01:06:05.604Z,0.00
2017-10-27T01:08:00.064Z,0.00
2017-10-27T01:08:59.971Z,0.00
2017-10-27T01:10:54.387Z,0.00
2017-10-27T01:11:54.330Z,0.00
2017-10-27T01:13:48.747Z,0.00
2017-10-27T01:14:48.723Z,0.00
2017-10-27T01:16:43.072Z,0.00
2017-10-27T01:17:43.067Z,0.00
2017-10-27T01:19:37.542Z,0.00
2017-10-27T01:20:37.435Z,0.00
2017-10-27T01:22:31.814Z,0.00
2017-10-27T01:23:31.804Z,0.00
2017-10-27T01:25:26.270Z,0.00
2017-10-27T01:26:26.173Z,0.00
2017-10-27T01:28:20.544Z,0.00
2017-10-27T01:29:20.540Z,0.00
2017-10-27T01:31:15.014Z,0.00
2017-10-27T01:32:14.907Z,0.00
2017-10-27T01:34:09.288Z,0.00
2017-10-27T01:35:09.283Z,0.00
2017-10-27T01:37:03.759Z,0.00
2017-10-27T01:38:03.655Z,0.00
2017-10-27T01:39:58.265Z,0.00
2017-10-27T01:40:58.042Z,0.00
2017-10-27T01:42:52.459Z,0.00
2017-10-27T01:43:52.411Z,0.00
2017-10-27T01:45:46.786Z,0.00
2017-10-27T01:46:46.781Z,0.00
2017-10-27T01:48:41.201Z,0.00
2017-10-27T01:49:41.153Z,0.00
2017-10-27T01:51:36.255Z,0.00
2017-10-27T01:52:36.249Z,0.00
2017-10-27T01:54:30.943Z,0.00
2017-10-27T01:55:30.609Z,0.00
2017-10-27T01:57:24.982Z,0.00
2017-10-27T01:58:24.977Z,0.00
2017-10-27T02:00:19.500Z,0.00
2017-10-27T02:01:19.349Z,0.00
2017-10-27T02:04:47.449Z,0.00
2017-10-27T02:05:47.451Z,0.00
2017-10-27T02:07:42.033Z,0.00
2017-10-27T02:08:41.817Z,0.00
2017-10-27T02:10:36.289Z,0.00
2017-10-27T02:11:36.196Z,0.00
2017-10-27T02:13:30.562Z,0.00
2017-10-27T02:14:30.558Z,0.00
2017-10-27T02:16:25.007Z,0.00
2017-10-27T02:17:24.915Z,0.00
2017-10-27T02:19:19.348Z,0.00
2017-10-27T02:20:19.291Z,0.00
2017-10-27T02:22:13.678Z,0.00
2017-10-27T02:23:13.666Z,0.00
2017-10-27T02:25:08.084Z,0.00
2017-10-27T02:26:08.032Z,0.00
2017-10-27T02:28:02.408Z,0.00
2017-10-27T02:29:02.406Z,0.00
2017-10-27T02:30:56.829Z,0.00
2017-10-27T02:31:56.775Z,0.00
2017-10-27T02:33:51.146Z,0.00
2017-10-27T02:34:51.142Z,0.00
2017-10-27T02:36:49.929Z,0.00
2017-10-27T02:37:49.840Z,0.00
2017-10-27T02:39:44.213Z,0.00
2017-10-27T02:40:44.208Z,0.00
2017-10-27T02:42:38.849Z,0.00
2017-10-27T02:43:38.579Z,0.00
2017-10-27T02:45:32.947Z,0.00
2017-10-27T02:46:32.944Z,0.00
2017-10-27T02:48:27.365Z,0.00
2017-10-27T02:49:27.315Z,0.00
2017-10-27T02:51:21.693Z,0.00
2017-10-27T02:52:21.687Z,0.00
2017-10-27T02:54:16.515Z,0.00
2017-10-27T02:55:16.060Z,0.00
2017-10-27T02:57:10.431Z,0.00
2017-10-27T02:58:10.425Z,0.00
2017-10-27T03:00:04.848Z,0.00
2017-10-27T03:01:04.792Z,0.00
2017-10-27T03:02:59.167Z,0.00
2017-10-27T03:03:59.166Z,0.00
2017-10-27T03:05:53.624Z,0.00
2017-10-27T03:06:53.539Z,0.00
2017-10-27T03:08:47.904Z,0.00
2017-10-27T03:09:47.899Z,0.00
2017-10-27T03:11:42.368Z,0.00
2017-10-27T03:12:42.267Z,0.00
2017-10-27T03:14:36.644Z,0.00
2017-10-27T03:15:36.636Z,0.00
2017-10-27T03:17:31.119Z,0.00
2017-10-27T03:19:45.383Z,0.00
2017-10-27T03:20:45.385Z,0.00
2017-10-27T03:22:39.847Z,0.00
2017-10-27T03:23:40.373Z,0.00
2017-10-27T03:25:34.123Z,0.00
2017-10-27T03:26:34.113Z,0.00
2017-10-27T03:28:30.317Z,0.00
2017-10-27T03:29:28.483Z,0.00
2017-10-27T03:31:22.865Z,0.00
2017-10-27T03:32:22.855Z,0.00
2017-10-27T03:34:17.314Z,0.00
2017-10-27T03:35:17.218Z,0.00
2017-10-27T03:37:11.589Z,0.00
2017-10-27T03:38:11.585Z,0.00
2017-10-27T03:40:06.008Z,0.00
2017-10-27T03:41:05.955Z,0.00
2017-10-27T03:43:00.324Z,0.00
2017-10-27T03:44:00.315Z,0.00
2017-10-27T03:45:54.796Z,0.00
2017-10-27T03:46:54.683Z,0.00
2017-10-27T03:48:49.055Z,0.00
2017-10-27T03:49:49.101Z,0.00
2017-10-27T03:51:43.470Z,0.00
2017-10-27T03:52:43.420Z,0.00
2017-10-27T03:54:37.795Z,0.00
2017-10-27T03:55:37.790Z,0.00
2017-10-27T03:57:32.213Z,0.00
2017-10-27T03:58:32.162Z,0.00
2017-10-27T04:00:26.583Z,0.00
2017-10-27T04:01:26.534Z,0.00
2017-10-27T04:03:20.906Z,0.00
2017-10-27T04:04:20.900Z,0.00
2017-10-27T04:06:15.378Z,0.00
2017-10-27T04:07:15.272Z,0.00
2017-10-27T04:08:15.276Z,0.00
2017-10-27T04:09:15.269Z,0.00
2017-10-27T04:10:15.269Z,0.00
2017-10-27T04:11:15.266Z,0.00
2017-10-27T04:12:15.266Z,0.00
2017-10-27T04:13:15.273Z,0.00
2017-10-27T04:14:15.262Z,0.00
2017-10-27T04:15:15.262Z,0.00
2017-10-27T04:16:15.265Z,0.00
2017-10-27T04:17:15.259Z,0.00
2017-10-27T04:18:15.258Z,0.00
2017-10-27T04:19:15.259Z,0.00
2017-10-27T04:20:15.259Z,0.00
2017-10-27T04:21:15.254Z,0.00
2017-10-27T04:22:15.784Z,0.00
2017-10-27T04:23:15.311Z,0.00
2017-10-27T04:24:15.252Z,0.00
2017-10-27T04:25:15.249Z,0.00
2017-10-27T04:26:15.249Z,0.00
2017-10-27T04:27:15.247Z,0.00
2017-10-27T04:28:15.247Z,0.00
2017-10-27T04:29:15.244Z,0.00
2017-10-27T04:30:15.248Z,0.00
2017-10-27T04:31:15.242Z,0.00
2017-10-27T04:32:15.241Z,0.00
2017-10-27T04:33:15.241Z,0.00
2017-10-27T04:34:15.239Z,0.00
2017-10-27T04:35:15.245Z,0.00
2017-10-27T04:36:15.238Z,0.00
2017-10-27T04:37:15.238Z,0.00
2017-10-27T04:38:15.234Z,0.00
2017-10-27T04:39:15.234Z,0.00
2017-10-27T04:40:15.237Z,0.00
2017-10-27T04:41:15.231Z,0.00
2017-10-27T04:42:15.232Z,0.00
2017-10-27T04:43:16.541Z,0.00
2017-10-27T04:44:15.228Z,0.00
2017-10-27T04:45:15.226Z,0.00
2017-10-27T04:46:15.226Z,0.00
2017-10-27T04:47:15.229Z,0.00
2017-10-27T04:48:15.225Z,0.00
2017-10-27T04:49:15.227Z,0.00
2017-10-27T04:50:15.221Z,0.00
2017-10-27T04:51:15.220Z,0.00
2017-10-27T04:52:15.219Z,0.00
2017-10-27T04:53:16.187Z,0.00
2017-10-27T04:54:15.218Z,0.00
2017-10-27T04:55:15.215Z,0.00
2017-10-27T04:56:15.215Z,0.00
2017-10-27T04:57:15.213Z,0.00
2017-10-27T04:58:15.215Z,0.00
2017-10-27T04:59:15.213Z,0.00
2017-10-27T05:00:15.210Z,0.00
2017-10-27T05:01:15.209Z,0.00
2017-10-27T05:02:15.207Z,0.00
2017-10-27T05:03:15.209Z,0.00
2017-10-27T05:04:15.249Z,0.00
2017-10-27T05:05:15.210Z,0.00
2017-10-27T05:06:15.202Z,0.00
2017-10-27T05:07:15.205Z,0.00
2017-10-27T05:08:15.201Z,0.00
2017-10-27T05:09:15.199Z,0.00
2017-10-27T05:10:15.198Z,0.00
2017-10-27T05:11:15.199Z,0.00
2017-10-27T05:12:15.200Z,0.00
2017-10-27T05:13:15.195Z,0.00
2017-10-27T05:14:15.195Z,0.00
2017-10-27T05:15:15.193Z,0.00
2017-10-27T05:16:15.193Z,0.00
2017-10-27T05:17:15.190Z,0.00
2017-10-27T05:18:15.189Z,0.00
2017-10-27T05:19:15.188Z,0.00
2017-10-27T05:20:15.193Z,0.00
2017-10-27T05:21:15.185Z,0.00
2017-10-27T05:22:15.186Z,0.00
2017-10-27T05:23:15.183Z,0.00
2017-10-27T05:24:15.184Z,0.00
2017-10-27T05:25:15.181Z,0.00
2017-10-27T05:26:15.180Z,0.00
2017-10-27T05:27:15.179Z,0.00
2017-10-27T05:28:15.180Z,0.00
2017-10-27T05:29:15.176Z,0.00
2017-10-27T05:30:15.175Z,0.00
2017-10-27T05:31:15.173Z,0.00
2017-10-27T05:32:15.172Z,0.00
2017-10-27T05:33:15.172Z,0.00
2017-10-27T05:34:15.171Z,0.00
2017-10-27T05:35:15.178Z,0.00
2017-10-27T05:36:15.169Z,0.00
2017-10-27T05:37:15.169Z,0.00
2017-10-27T05:38:15.169Z,0.00
2017-10-27T05:39:15.164Z,0.00
2017-10-27T05:40:15.170Z,0.00
2017-10-27T05:41:15.164Z,0.00
2017-10-27T05:42:15.161Z,0.00
2017-10-27T05:43:15.160Z,0.00
2017-10-27T05:44:15.158Z,0.00
2017-10-27T05:45:15.158Z,0.00
2017-10-27T05:46:15.187Z,0.00
2017-10-27T05:47:15.157Z,0.00
2017-10-27T05:48:15.162Z,0.00
2017-10-27T05:49:15.153Z,0.00
2017-10-27T05:50:15.154Z,0.00
2017-10-27T05:51:15.853Z,0.00
2017-10-27T05:52:15.472Z,0.00
2017-10-27T05:53:15.147Z,0.00
2017-10-27T05:54:15.145Z,0.00
2017-10-27T05:55:15.147Z,0.00
2017-10-27T05:56:15.147Z,0.00
2017-10-27T05:57:15.142Z,0.00
2017-10-27T05:58:15.141Z,0.00
2017-10-27T05:59:15.141Z,0.00
2017-10-27T06:00:15.139Z,0.00
2017-10-27T06:01:15.137Z,0.00
2017-10-27T06:02:15.144Z,0.00
2017-10-27T06:03:15.139Z,0.00
2017-10-27T06:04:15.134Z,0.00
2017-10-27T06:05:15.133Z,0.00
2017-10-27T06:06:15.381Z,0.00
2017-10-27T06:07:15.133Z,0.00
2017-10-27T06:08:15.130Z,0.00
2017-10-27T06:09:15.128Z,0.00
2017-10-27T06:10:15.151Z,0.00
2017-10-27T06:11:15.129Z,0.00
2017-10-27T06:12:15.125Z,0.00
2017-10-27T06:13:15.126Z,0.00
2017-10-27T06:14:15.122Z,0.00
2017-10-27T06:15:15.121Z,0.00
2017-10-27T06:16:15.122Z,0.00
2017-10-27T06:17:15.858Z,0.00
2017-10-27T06:18:15.118Z,0.00
2017-10-27T06:19:15.374Z,0.00
2017-10-27T06:20:15.120Z,0.00
2017-10-27T06:21:15.114Z,0.00
2017-10-27T06:22:15.115Z,0.00
2017-10-27T06:23:15.110Z,0.00
2017-10-27T06:24:15.110Z,0.00
2017-10-27T06:25:15.459Z,0.00
2017-10-27T06:26:15.108Z,0.00
2017-10-27T06:27:15.106Z,0.00
2017-10-27T06:28:15.105Z,5.63
2017-10-27T06:29:15.103Z,5.63
2017-10-27T06:30:15.107Z,5.63
2017-10-27T06:31:15.129Z,5.63
2017-10-27T06:32:15.100Z,5.63
2017-10-27T06:33:15.101Z,5.63
2017-10-27T06:34:15.097Z,5.63
2017-10-27T06:35:15.095Z,5.63
2017-10-27T06:36:15.094Z,5.63
2017-10-27T06:37:15.092Z,5.63
2017-10-27T06:38:15.092Z,5.63
2017-10-27T06:39:15.089Z,5.63
2017-10-27T06:40:15.090Z,5.63
2017-10-27T06:41:15.092Z,5.63
2017-10-27T06:42:15.087Z,5.63
2017-10-27T06:43:15.085Z,5.63
2017-10-27T06:44:15.085Z,5.63
2017-10-27T06:45:15.083Z,5.63
2017-10-27T06:46:15.082Z,5.63
2017-10-27T06:47:15.096Z,5.63
2017-10-27T06:48:15.078Z,5.63
2017-10-27T06:49:15.082Z,5.63
2017-10-27T06:50:15.164Z,5.63
2017-10-27T06:51:15.345Z,5.63
2017-10-27T06:52:15.073Z,5.63
2017-10-27T06:53:15.070Z,5.63
2017-10-27T06:54:15.071Z,5.63
2017-10-27T06:55:15.069Z,5.63
2017-10-27T06:56:15.841Z,5.63
2017-10-27T06:57:15.064Z,5.63
2017-10-27T06:58:15.064Z,5.63
2017-10-27T06:59:15.062Z,5.63
2017-10-27T07:00:15.062Z,5.63
2017-10-27T07:01:15.059Z,5.63
2017-10-27T07:02:15.058Z,5.63
2017-10-27T07:03:15.059Z,11.25
2017-10-27T07:04:15.056Z,11.25
2017-10-27T07:05:15.053Z,5.63
2017-10-27T07:06:15.064Z,5.63
2017-10-27T07:07:15.051Z,5.63
2017-10-27T07:08:15.051Z,5.63
2017-10-27T07:09:15.048Z,11.25
2017-10-27T07:10:15.158Z,11.25
2017-10-27T07:11:15.187Z,16.88
2017-10-27T07:12:15.043Z,22.50
2017-10-27T07:13:15.868Z,22.50
2017-10-27T07:14:15.040Z,22.50
2017-10-27T07:15:15.039Z,28.13
2017-10-27T07:16:15.037Z,28.13
2017-10-27T07:17:15.036Z,28.13
2017-10-27T07:18:15.034Z,22.50
2017-10-27T07:19:15.034Z,28.13
2017-10-27T07:20:15.032Z,28.13
2017-10-27T07:21:15.031Z,33.75
2017-10-27T07:22:15.028Z,33.75
2017-10-27T07:23:15.027Z,33.75
2017-10-27T07:24:15.034Z,33.75
2017-10-27T07:25:15.036Z,28.13
2017-10-27T07:26:15.553Z,33.75
2017-10-27T07:27:15.311Z,45.00
2017-10-27T07:28:15.019Z,45.00
2017-10-27T07:29:15.018Z,33.75
2017-10-27T07:30:15.017Z,39.38
2017-10-27T07:31:15.019Z,39.38
2017-10-27T07:32:15.014Z,33.75
2017-10-27T07:33:15.012Z,33.75
2017-10-27T07:34:15.010Z,39.38
2017-10-27T07:35:15.009Z,45.00
2017-10-27T07:36:15.013Z,50.63
2017-10-27T07:37:15.005Z,45.00
2017-10-27T07:38:15.005Z,39.38
2017-10-27T07:39:15.003Z,39.38
2017-10-27T07:40:15.003Z,45.00
2017-10-27T07:41:14.999Z,45.00
2017-10-27T07:42:14.997Z,39.38
2017-10-27T07:43:15.000Z,39.38
2017-10-27T07:44:14.996Z,39.38
2017-10-27T07:45:14.992Z,33.75
2017-10-27T07:46:14.991Z,33.75
2017-10-27T07:47:14.990Z,33.75
2017-10-27T07:48:14.989Z,33.75
2017-10-27T07:49:15.013Z,33.75
2017-10-27T07:50:14.986Z,33.75
2017-10-27T07:51:14.984Z,39.38
2017-10-27T07:52:14.988Z,39.38
2017-10-27T07:53:14.991Z,45.00
2017-10-27T07:54:14.987Z,56.25
2017-10-27T07:55:14.984Z,73.13
2017-10-27T07:56:14.980Z,67.50
2017-10-27T07:57:14.976Z,56.25
2017-10-27T07:58:14.976Z,50.63
2017-10-27T07:59:14.985Z,45.00
2017-10-27T08:00:14.972Z,45.00
2017-10-27T08:01:14.974Z,45.00
2017-10-27T08:02:14.968Z,45.00
2017-10-27T08:03:14.968Z,61.88
2017-10-27T08:04:14.966Z,73.13
2017-10-27T08:05:14.965Z,67.50
2017-10-27T08:06:14.983Z,61.88
2017-10-27T08:07:14.962Z,56.25
2017-10-27T08:08:14.961Z,45.00
2017-10-27T08:09:14.958Z,45.00
2017-10-27T08:10:14.958Z,50.63
2017-10-27T08:11:14.957Z,67.50
2017-10-27T08:12:14.956Z,84.38
2017-10-27T08:13:14.953Z,95.63
2017-10-27T08:14:14.972Z,90.00
2017-10-27T08:15:14.950Z,84.38
2017-10-27T08:16:14.960Z,106.88
2017-10-27T08:17:14.947Z,118.13
2017-10-27T08:18:14.945Z,112.50
2017-10-27T08:19:14.945Z,73.13
2017-10-27T08:20:14.943Z,56.25
2017-10-27T08:21:14.942Z,50.63
2017-10-27T08:22:14.940Z,50.63
2017-10-27T08:23:14.938Z,50.63
2017-10-27T08:24:14.939Z,45.00
2017-10-27T08:25:14.937Z,45.00
2017-10-27T08:26:14.936Z,45.00
2017-10-27T08:27:14.942Z,50.63
2017-10-27T08:28:15.033Z,67.50
2017-10-27T08:29:14.933Z,78.75
2017-10-27T08:30:14.932Z,78.75
2017-10-27T08:31:14.931Z,84.38
2017-10-27T08:32:14.929Z,78.75
2017-10-27T08:33:14.928Z,73.13
2017-10-27T08:34:14.926Z,67.50
2017-10-27T08:35:14.928Z,61.88
2017-10-27T08:36:14.925Z,56.25
2017-10-27T08:37:14.924Z,56.25
2017-10-27T08:38:14.925Z,45.00
2017-10-27T08:39:14.923Z,39.38
2017-10-27T08:40:14.923Z,33.75
2017-10-27T08:41:14.920Z,33.75
2017-10-27T08:42:14.919Z,33.75
2017-10-27T08:43:14.922Z,39.38
2017-10-27T08:44:14.929Z,39.38
2017-10-27T08:45:14.916Z,39.38
2017-10-27T08:46:14.915Z,39.38
2017-10-27T08:47:14.919Z,39.38
2017-10-27T08:48:14.912Z,45.00
2017-10-27T08:49:14.914Z,45.00
2017-10-27T08:50:14.910Z,45.00
2017-10-27T08:51:14.915Z,45.00
2017-10-27T08:52:14.912Z,45.00
2017-10-27T08:53:14.906Z,45.00
2017-10-27T08:54:14.906Z,45.00
2017-10-27T08:55:14.905Z,56.25
2017-10-27T08:56:14.904Z,61.88
2017-10-27T08:57:14.903Z,78.75
2017-10-27T08:58:14.900Z,67.50
2017-10-27T08:59:15.435Z,78.75
2017-10-27T09:00:14.899Z,78.75
2017-10-27T09:01:14.897Z,73.13
2017-10-27T09:02:14.898Z,78.75
2017-10-27T09:03:14.899Z,101.25
2017-10-27T09:04:14.894Z,112.50
2017-10-27T09:05:14.896Z,101.25
2017-10-27T09:06:14.895Z,78.75
2017-10-27T09:07:14.890Z,73.13
2017-10-27T09:08:14.889Z,78.75
2017-10-27T09:09:14.887Z,78.75
2017-10-27T09:10:14.888Z,95.63
2017-10-27T09:11:14.885Z,101.25
2017-10-27T09:12:14.885Z,123.75
2017-10-27T09:13:14.882Z,112.50
2017-10-27T09:14:14.882Z,101.25
2017-10-27T09:15:14.881Z,101.25
2017-10-27T09:16:14.880Z,90.00
2017-10-27T09:17:14.880Z,90.00
2017-10-27T09:18:14.878Z,90.00
2017-10-27T09:19:14.880Z,61.88
2017-10-27T09:20:14.878Z,50.63
2017-10-27T09:21:14.875Z,50.63
2017-10-27T09:22:14.876Z,45.00
2017-10-27T09:23:14.877Z,45.00
2017-10-27T09:24:14.877Z,56.25
2017-10-27T09:25:14.874Z,50.63
2017-10-27T09:26:14.873Z,50.63
2017-10-27T09:27:14.872Z,56.25
2017-10-27T09:28:14.878Z,56.25
2017-10-27T09:29:14.870Z,61.88
2017-10-27T09:30:15.811Z,61.88
2017-10-27T09:31:14.870Z,61.88
2017-10-27T09:32:14.872Z,78.75
2017-10-27T09:33:14.867Z,73.13
2017-10-27T09:34:14.868Z,106.88
2017-10-27T09:35:14.867Z,118.13
2017-10-27T09:36:14.867Z,101.25
2017-10-27T09:37:14.866Z,84.38
2017-10-27T09:38:14.867Z,90.00
2017-10-27T09:39:14.871Z,95.63
2017-10-27T09:40:14.871Z,106.88
2017-10-27T09:41:14.861Z,123.75
2017-10-27T09:42:14.863Z,118.13
2017-10-27T09:43:14.863Z,106.88
2017-10-27T09:44:14.861Z,106.88
2017-10-27T09:45:14.860Z,112.50
2017-10-27T09:46:14.860Z,129.38
2017-10-27T09:47:14.858Z,112.50
2017-10-27T09:48:14.860Z,84.38
2017-10-27T09:49:14.857Z,67.50
2017-10-27T09:50:14.856Z,73.13
2017-10-27T09:51:14.856Z,78.75
2017-10-27T09:52:14.856Z,90.00
2017-10-27T09:53:14.854Z,101.25
2017-10-27T09:54:14.858Z,129.38
2017-10-27T09:55:14.858Z,101.25
2017-10-27T09:56:14.856Z,106.88
2017-10-27T09:57:14.855Z,112.50
2017-10-27T09:58:14.852Z,101.25
2017-10-27T09:59:14.856Z,101.25
2017-10-27T10:00:14.853Z,101.25
2017-10-27T10:01:14.851Z,90.00
2017-10-27T10:02:14.850Z,90.00
2017-10-27T10:03:14.852Z,118.13
2017-10-27T10:04:14.851Z,123.75
2017-10-27T10:05:14.850Z,95.63
2017-10-27T10:06:14.850Z,95.63
2017-10-27T10:07:14.850Z,90.00
2017-10-27T10:08:14.855Z,106.88
2017-10-27T10:09:14.850Z,90.00
2017-10-27T10:10:14.848Z,84.38
2017-10-27T10:11:14.848Z,78.75
2017-10-27T10:12:14.849Z,90.00
2017-10-27T10:13:14.846Z,84.38
2017-10-27T10:14:14.846Z,84.38
2017-10-27T10:15:14.855Z,95.63
2017-10-27T10:16:14.848Z,101.25
2017-10-27T10:17:14.845Z,84.38
2017-10-27T10:18:14.845Z,78.75
2017-10-27T10:19:15.836Z,84.38
2017-10-27T10:20:14.846Z,106.88
2017-10-27T10:21:14.843Z,84.38
2017-10-27T10:22:14.843Z,84.38
2017-10-27T10:23:14.890Z,84.38
2017-10-27T10:24:14.848Z,90.00
2017-10-27T10:25:14.842Z,67.50
2017-10-27T10:26:14.842Z,56.25
2017-10-27T10:27:14.845Z,56.25
2017-10-27T10:28:14.841Z,67.50
2017-10-27T10:29:14.838Z,45.00
2017-10-27T10:30:14.839Z,45.00
2017-10-27T10:31:14.841Z,45.00
2017-10-27T10:32:14.837Z,50.63
2017-10-27T10:33:14.841Z,50.63
2017-10-27T10:34:14.948Z,56.25
2017-10-27T10:35:14.836Z,67.50
2017-10-27T10:36:14.836Z,84.38
2017-10-27T10:37:14.835Z,95.63
2017-10-27T10:38:14.833Z,84.38
2017-10-27T10:39:14.834Z,67.50
2017-10-27T10:40:14.863Z,56.25
2017-10-27T10:41:14.831Z,61.88
2017-10-27T10:42:14.839Z,73.13
2017-10-27T10:43:14.829Z,61.88
2017-10-27T10:44:14.829Z,45.00
2017-10-27T10:45:14.832Z,50.63
2017-10-27T10:46:14.828Z,61.88
2017-10-27T10:47:14.830Z,56.25
2017-10-27T10:48:14.826Z,50.63
2017-10-27T10:49:14.826Z,56.25
2017-10-27T10:50:14.831Z,67.50
2017-10-27T10:51:14.832Z,73.13
2017-10-27T10:52:15.275Z,56.25
2017-10-27T10:53:14.862Z,61.88
2017-10-27T10:54:15.172Z,67.50
2017-10-27T10:55:15.180Z,50.63
2017-10-27T10:56:16.854Z,56.25
2017-10-27T10:57:18.059Z,95.63
2017-10-27T10:58:15.860Z,101.25
2017-10-27T10:59:15.960Z,95.63
2017-10-27T11:00:14.817Z,106.88
2017-10-27T11:01:14.816Z,90.00
2017-10-27T11:02:14.952Z,90.00
2017-10-27T11:03:14.814Z,90.00
2017-10-27T11:04:14.814Z,101.25
2017-10-27T11:05:14.814Z,112.50
2017-10-27T11:06:14.811Z,112.50
2017-10-27T11:07:14.811Z,101.25
2017-10-27T11:08:14.813Z,90.00
2017-10-27T11:09:14.811Z,106.88
2017-10-27T11:10:14.809Z,90.00
2017-10-27T11:11:14.812Z,73.13
2017-10-27T11:12:14.809Z,56.25
2017-10-27T11:13:14.814Z,61.88
2017-10-27T11:14:14.806Z,90.00
2017-10-27T11:15:14.807Z,101.25
2017-10-27T11:16:14.805Z,95.63
2017-10-27T11:17:14.805Z,84.38
2017-10-27T11:18:14.812Z,90.00
2017-10-27T11:19:14.805Z,95.63
2017-10-27T11:20:14.805Z,61.88
2017-10-27T11:21:14.814Z,56.25
2017-10-27T11:22:14.803Z,50.63
2017-10-27T11:23:14.805Z,50.63
2017-10-27T11:24:14.810Z,56.25
2017-10-27T11:25:14.805Z,56.25
2017-10-27T11:26:14.866Z,61.88
2017-10-27T11:27:14.804Z,67.50
2017-10-27T11:28:14.800Z,78.75
2017-10-27T11:29:14.798Z,84.38
2017-10-27T11:30:14.801Z,84.38
2017-10-27T11:31:14.805Z,84.38
2017-10-27T11:32:14.798Z,95.63
2017-10-27T11:33:15.354Z,123.75
2017-10-27T11:34:14.796Z,140.63
2017-10-27T11:35:14.797Z,123.75
2017-10-27T11:36:14.795Z,106.88
2017-10-27T11:37:14.794Z,78.75
2017-10-27T11:38:14.794Z,61.88
2017-10-27T11:39:14.794Z,78.75
2017-10-27T11:40:14.793Z,84.38
2017-10-27T11:41:14.793Z,84.38
2017-10-27T11:42:14.792Z,101.25
2017-10-27T11:43:14.791Z,118.13
2017-10-27T11:44:14.795Z,123.75
2017-10-27T11:45:14.790Z,135.00
2017-10-27T11:46:14.789Z,135.00
2017-10-27T11:47:14.790Z,112.50
2017-10-27T11:48:14.789Z,95.63
2017-10-27T11:49:14.788Z,129.38
2017-10-27T11:50:14.791Z,123.75
2017-10-27T11:51:14.808Z,151.88
2017-10-27T11:52:14.793Z,163.13
2017-10-27T11:53:14.788Z,146.25
2017-10-27T11:54:14.784Z,129.38
2017-10-27T11:55:14.788Z,140.63
2017-10-27T11:56:14.790Z,123.75
2017-10-27T11:57:14.787Z,118.13
2017-10-27T11:58:14.785Z,129.38
2017-10-27T11:59:14.784Z,106.88
2017-10-27T12:00:14.790Z,67.50
2017-10-27T12:01:14.784Z,73.13
2017-10-27T12:02:14.783Z,73.13
2017-10-27T12:03:14.786Z,73.13
2017-10-27T12:04:15.722Z,67.50
2017-10-27T12:05:14.785Z,118.13
2017-10-27T12:06:14.782Z,106.88
2017-10-27T12:07:14.782Z,140.63
2017-10-27T12:08:14.783Z,95.63
2017-10-27T12:09:14.782Z,78.75
2017-10-27T12:10:14.787Z,73.13
2017-10-27T12:11:14.794Z,67.50
2017-10-27T12:12:14.785Z,61.88
2017-10-27T12:13:14.783Z,61.88
2017-10-27T12:14:14.783Z,73.13
2017-10-27T12:15:14.780Z,78.75
2017-10-27T12:16:14.782Z,112.50
2017-10-27T12:17:14.782Z,129.38
2017-10-27T12:18:14.784Z,112.50
2017-10-27T12:19:14.777Z,106.88
2017-10-27T12:20:14.777Z,101.25
2017-10-27T12:21:14.778Z,101.25
2017-10-27T12:22:14.784Z,90.00
2017-10-27T12:23:14.779Z,84.38
2017-10-27T12:24:14.776Z,73.13
2017-10-27T12:25:14.776Z,61.88
2017-10-27T12:26:14.775Z,56.25
2017-10-27T12:27:14.776Z,61.88
2017-10-27T12:28:14.774Z,61.88
2017-10-27T12:29:14.778Z,56.25
2017-10-27T12:30:14.775Z,61.88
2017-10-27T12:31:14.775Z,67.50
2017-10-27T12:32:14.776Z,90.00
2017-10-27T12:33:14.780Z,90.00
2017-10-27T12:34:14.772Z,78.75
2017-10-27T12:35:14.773Z,78.75
2017-10-27T12:36:14.774Z,84.38
2017-10-27T12:37:14.773Z,101.25
2017-10-27T12:38:14.775Z,106.88
2017-10-27T12:39:14.774Z,112.50
2017-10-27T12:40:14.772Z,123.75
2017-10-27T12:41:14.769Z,106.88
2017-10-27T12:42:14.785Z,95.63
2017-10-27T12:43:14.782Z,95.63
2017-10-27T12:44:14.769Z,106.88
2017-10-27T12:45:14.896Z,101.25
2017-10-27T12:46:14.888Z,112.50
2017-10-27T12:47:14.767Z,95.63
2017-10-27T12:48:14.767Z,90.00
2017-10-27T12:49:15.748Z,73.13
2017-10-27T12:50:14.848Z,61.88
2017-10-27T12:51:15.862Z,50.63
2017-10-27T12:52:14.793Z,50.63
2017-10-27T12:53:14.765Z,50.63
2017-10-27T12:54:14.909Z,50.63
2017-10-27T12:55:14.765Z,50.63
2017-10-27T12:56:14.765Z,56.25
2017-10-27T12:57:14.767Z,61.88
2017-10-27T12:58:14.954Z,67.50
2017-10-27T12:59:14.836Z,67.50
2017-10-27T13:00:14.838Z,73.13
2017-10-27T13:01:14.773Z,84.38
2017-10-27T13:02:14.763Z,84.38
2017-10-27T13:03:14.762Z,78.75
2017-10-27T13:04:14.763Z,78.75
2017-10-27T13:05:14.790Z,67.50
2017-10-27T13:06:14.856Z,73.13
2017-10-27T13:07:14.960Z,90.00
2017-10-27T13:08:14.764Z,84.38
2017-10-27T13:09:15.373Z,90.00
2017-10-27T13:10:14.765Z,84.38
2017-10-27T13:11:14.763Z,84.38
2017-10-27T13:12:14.769Z,90.00
2017-10-27T13:13:14.862Z,90.00
2017-10-27T13:14:14.843Z,90.00
2017-10-27T13:15:15.871Z,84.38
2017-10-27T13:16:15.407Z,78.75
2017-10-27T13:17:14.792Z,84.38
2017-10-27T13:18:14.973Z,78.75
2017-10-27T13:19:15.921Z,67.50
2017-10-27T13:20:14.763Z,67.50
2017-10-27T13:21:14.761Z,73.13
2017-10-27T13:22:14.771Z,73.13
2017-10-27T13:23:14.762Z,61.88
2017-10-27T13:24:14.762Z,61.88
2017-10-27T13:25:14.764Z,56.25
2017-10-27T13:26:14.761Z,56.25
2017-10-27T13:27:14.764Z,61.88
2017-10-27T13:28:14.762Z,67.50
2017-10-27T13:29:14.769Z,73.13
2017-10-27T13:30:14.768Z,78.75
2017-10-27T13:31:14.882Z,73.13
2017-10-27T13:32:14.763Z,73.13
2017-10-27T13:33:14.762Z,67.50
2017-10-27T13:34:14.764Z,67.50
2017-10-27T13:35:14.768Z,67.50
2017-10-27T13:36:14.765Z,73.13
2017-10-27T13:37:14.762Z,61.88
2017-10-27T13:38:14.761Z,50.63
2017-10-27T13:39:14.764Z,45.00
2017-10-27T13:40:14.770Z,45.00
2017-10-27T13:41:14.763Z,39.38
2017-10-27T13:42:14.765Z,39.38
2017-10-27T13:43:14.761Z,39.38
2017-10-27T13:44:14.762Z,33.75
2017-10-27T13:45:14.762Z,33.75
2017-10-27T13:46:14.797Z,39.38
2017-10-27T13:47:14.816Z,45.00
2017-10-27T13:48:14.761Z,45.00
2017-10-27T13:49:14.759Z,39.38
2017-10-27T13:50:14.766Z,39.38
2017-10-27T13:51:14.760Z,45.00
2017-10-27T13:52:14.768Z,39.38
2017-10-27T13:53:14.760Z,39.38
2017-10-27T13:54:14.760Z,33.75
2017-10-27T13:55:14.764Z,33.75
2017-10-27T13:56:14.761Z,33.75
2017-10-27T13:57:14.759Z,33.75
2017-10-27T13:58:14.758Z,33.75
2017-10-27T13:59:14.759Z,33.75
2017-10-27T14:00:14.758Z,33.75
2017-10-27T14:01:14.758Z,33.75
2017-10-27T14:02:14.757Z,33.75
2017-10-27T14:03:14.756Z,39.38
2017-10-27T14:04:14.760Z,39.38
2017-10-27T14:05:14.755Z,45.00
2017-10-27T14:06:14.758Z,39.38
2017-10-27T14:07:15.047Z,39.38
2017-10-27T14:08:14.754Z,39.38
2017-10-27T14:09:14.753Z,45.00
2017-10-27T14:10:14.756Z,45.00
2017-10-27T14:11:14.755Z,39.38
2017-10-27T14:12:14.753Z,39.38
2017-10-27T14:13:14.753Z,45.00
2017-10-27T14:14:14.754Z,45.00
2017-10-27T14:15:14.753Z,50.63
2017-10-27T14:16:14.758Z,45.00
2017-10-27T14:17:14.751Z,39.38
2017-10-27T14:18:14.753Z,39.38
2017-10-27T14:19:14.753Z,33.75
2017-10-27T14:20:14.752Z,33.75